Cottekill, New York
Current Conditions -  °F | °C
As of 5:43 AM on Thursday 27 Nov 2014 (Local Time) from KPOU Reporting Station
Scattered Clouds Scattered Clouds  
Wind Chill: 28°   Ceiling: Unl
Heat Index: 28°   Visibility: 8mi
Dew Point: 26°   Wind: 0mph
Humidity: 92%   Direction: NA
Pressure: 29.95"   Gusts: NA
Location:  41.85°N, 74.1°W
Report Text: KPOU 271043Z 00000KT 8SM SCT029 M02/M03 A2995 RMK AO2 T10221033
Loading
Personal Weather Stations






























Interactive Weather Map New forecast layout! Learn more

10-Day Weather Forecast

Advertisements
Track Severe Weather on mobile